createdAt,value
2023-02-22T00:00:12.444Z,36.20
2023-02-22T00:01:12.429Z,36.50
2023-02-22T00:02:12.429Z,36.00
2023-02-22T00:03:12.467Z,38.00
2023-02-22T00:04:12.389Z,37.60
2023-02-22T00:05:12.372Z,37.20
2023-02-22T00:06:12.357Z,37.60
2023-02-22T00:07:12.342Z,36.10
2023-02-22T00:08:12.334Z,37.60
2023-02-22T00:09:12.319Z,38.40
2023-02-22T00:10:12.325Z,37.40
2023-02-22T00:11:12.290Z,37.90
2023-02-22T00:12:12.298Z,38.40
2023-02-22T00:13:12.257Z,38.50
2023-02-22T00:14:12.244Z,36.30
2023-02-22T00:15:12.243Z,36.10
2023-02-22T00:16:12.244Z,37.70
2023-02-22T00:17:12.221Z,37.90
2023-02-22T00:18:12.198Z,39.70
2023-02-22T00:19:12.176Z,37.00
2023-02-22T00:20:12.176Z,39.40
2023-02-22T00:21:12.154Z,39.00
2023-02-22T00:22:12.155Z,37.80
2023-02-22T00:23:12.127Z,38.50
2023-02-22T00:24:12.124Z,38.30
2023-02-22T00:25:12.103Z,39.30
2023-02-22T00:26:12.088Z,37.60
2023-02-22T00:27:12.068Z,39.30
2023-02-22T00:28:12.070Z,39.00
2023-02-22T00:29:12.039Z,39.50
2023-02-22T00:30:12.115Z,40.00
2023-02-22T00:31:12.011Z,39.30
2023-02-22T00:32:12.159Z,39.10
2023-02-22T00:33:11.991Z,39.40
2023-02-22T00:34:11.979Z,38.10
2023-02-22T00:35:11.973Z,40.00
2023-02-22T00:36:11.961Z,38.50
2023-02-22T00:37:11.939Z,40.50
2023-02-22T00:38:11.930Z,38.20
2023-02-22T00:39:11.927Z,36.80
2023-02-22T00:40:11.903Z,37.30
2023-02-22T00:41:11.912Z,38.80
2023-02-22T00:42:11.874Z,38.80
2023-02-22T00:43:11.865Z,38.20
2023-02-22T00:44:12.042Z,36.30
2023-02-22T00:45:11.842Z,36.90
2023-02-22T00:46:11.911Z,37.70
2023-02-22T00:47:11.806Z,37.40
2023-02-22T00:48:11.813Z,36.30
2023-02-22T00:49:11.773Z,38.10
2023-02-22T00:50:11.766Z,37.80
2023-02-22T00:51:11.770Z,38.50
2023-02-22T00:52:11.741Z,38.20
2023-02-22T00:53:11.709Z,37.50
2023-02-22T00:54:11.731Z,37.70
2023-02-22T00:55:11.701Z,38.80
2023-02-22T00:56:11.694Z,39.90
2023-02-22T00:57:11.666Z,38.10
2023-02-22T00:58:11.657Z,37.90
2023-02-22T00:59:11.629Z,38.40
2023-02-22T01:00:11.642Z,37.90
2023-02-22T01:01:11.660Z,37.70
2023-02-22T01:02:11.682Z,39.40
2023-02-22T01:03:11.584Z,38.70
2023-02-22T01:04:11.606Z,37.40
2023-02-22T01:05:11.584Z,40.50
2023-02-22T01:06:11.546Z,39.30
2023-02-22T01:07:11.543Z,39.20
2023-02-22T01:08:11.514Z,38.50
2023-02-22T01:09:11.496Z,38.60
2023-02-22T01:10:11.514Z,39.80
2023-02-22T01:11:11.466Z,39.40
2023-02-22T01:12:11.467Z,38.10
2023-02-22T01:13:11.551Z,39.00
2023-02-22T01:14:11.434Z,41.00
2023-02-22T01:15:11.431Z,40.50
2023-02-22T01:16:11.506Z,39.80
2023-02-22T01:17:11.390Z,39.00
2023-02-22T01:18:11.403Z,40.30
2023-02-22T01:19:11.370Z,39.80
2023-02-22T01:20:11.360Z,40.70
2023-02-22T01:21:11.333Z,41.20
2023-02-22T01:22:11.338Z,40.30
2023-02-22T01:23:11.305Z,40.70
2023-02-22T01:24:11.323Z,39.80
2023-02-22T01:25:11.278Z,40.80
2023-02-22T01:26:11.282Z,39.90
2023-02-22T01:27:11.261Z,40.90
2023-02-22T01:28:11.256Z,40.50
2023-02-22T01:29:11.228Z,39.80
2023-02-22T01:30:11.246Z,39.70
2023-02-22T01:31:11.290Z,40.90
2023-02-22T01:32:11.234Z,41.00
2023-02-22T01:33:11.166Z,41.90
2023-02-22T01:34:11.167Z,42.90
2023-02-22T01:35:11.191Z,42.50
2023-02-22T01:36:11.141Z,44.00
2023-02-22T01:37:11.116Z,42.70
2023-02-22T01:38:11.115Z,44.80
2023-02-22T01:39:12.344Z,42.40
2023-02-22T01:40:11.089Z,42.90
2023-02-22T01:41:11.070Z,43.60
2023-02-22T01:42:11.050Z,44.00
2023-02-22T01:43:11.036Z,43.70
2023-02-22T01:44:11.029Z,43.10
2023-02-22T01:45:11.006Z,42.90
2023-02-22T01:46:11.038Z,45.50
2023-02-22T01:47:10.979Z,44.00
2023-02-22T01:48:10.968Z,43.90
2023-02-22T01:49:32.066Z,42.90
2023-02-22T01:50:10.933Z,41.80
2023-02-22T01:51:11.233Z,42.60
2023-02-22T01:52:25.742Z,43.20
2023-02-22T01:53:10.893Z,41.20
2023-02-22T01:54:10.891Z,41.80
2023-02-22T01:55:10.901Z,42.10
2023-02-22T01:56:10.878Z,40.30
2023-02-22T01:57:10.852Z,39.50
2023-02-22T01:58:10.834Z,39.70
2023-02-22T01:59:10.828Z,41.20
2023-02-22T02:00:10.803Z,37.70
2023-02-22T02:01:10.804Z,40.90
2023-02-22T02:02:10.777Z,40.10
2023-02-22T02:03:10.794Z,41.30
2023-02-22T02:04:10.774Z,39.60
2023-02-22T02:05:10.836Z,40.10
2023-02-22T02:06:10.737Z,40.30
2023-02-22T02:07:10.712Z,40.30
2023-02-22T02:08:10.689Z,40.90
2023-02-22T02:09:10.763Z,40.60
2023-02-22T02:10:10.667Z,40.70
2023-02-22T02:11:10.680Z,39.90
2023-02-22T02:12:10.645Z,40.90
2023-02-22T02:13:10.642Z,43.20
2023-02-22T02:14:10.622Z,40.50
2023-02-22T02:15:10.619Z,42.30
2023-02-22T02:16:10.610Z,41.50
2023-02-22T02:17:10.596Z,43.70
2023-02-22T02:18:10.571Z,41.50
2023-02-22T02:19:10.554Z,43.30
2023-02-22T02:20:10.538Z,42.10
2023-02-22T02:21:10.550Z,42.60
2023-02-22T02:22:10.513Z,42.90
2023-02-22T02:23:10.499Z,42.50
2023-02-22T02:24:10.493Z,41.20
2023-02-22T02:25:10.467Z,41.00
2023-02-22T02:26:10.461Z,41.50
2023-02-22T02:27:10.451Z,41.10
2023-02-22T02:28:10.438Z,41.90
2023-02-22T02:29:10.418Z,40.90
2023-02-22T02:30:10.441Z,40.60
2023-02-22T02:31:10.392Z,41.10
2023-02-22T02:32:10.495Z,41.30
2023-02-22T02:33:10.363Z,38.90
2023-02-22T02:34:10.371Z,39.40
2023-02-22T02:35:10.338Z,38.30
2023-02-22T02:36:10.325Z,38.80
2023-02-22T02:37:10.332Z,37.20
2023-02-22T02:38:10.299Z,39.10
2023-02-22T02:39:10.281Z,37.50
2023-02-22T02:40:10.355Z,36.70
2023-02-22T02:41:10.258Z,36.10
2023-02-22T02:42:10.253Z,38.30
2023-02-22T02:43:10.229Z,36.80
2023-02-22T02:44:10.221Z,36.50
2023-02-22T02:45:10.206Z,36.70
2023-02-22T02:46:10.193Z,35.80
2023-02-22T02:47:10.240Z,35.60
2023-02-22T02:48:10.175Z,36.80
2023-02-22T02:49:10.172Z,36.10
2023-02-22T02:50:10.162Z,36.50
2023-02-22T02:51:10.115Z,36.40
2023-02-22T02:52:10.122Z,35.50
2023-02-22T02:53:10.097Z,34.60
2023-02-22T02:54:10.093Z,36.40
2023-02-22T02:55:10.069Z,37.10
2023-02-22T02:56:10.063Z,37.40
2023-02-22T02:57:10.069Z,38.80
2023-02-22T02:58:10.032Z,37.30
2023-02-22T02:59:10.024Z,36.30
2023-02-22T03:00:10.004Z,35.30
2023-02-22T03:01:10.026Z,35.70
2023-02-22T03:02:09.969Z,35.50
2023-02-22T03:03:10.014Z,34.50
2023-02-22T03:04:09.967Z,36.50
2023-02-22T03:05:09.962Z,36.30
2023-02-22T03:06:09.928Z,35.90
2023-02-22T03:07:09.946Z,37.10
2023-02-22T03:08:09.899Z,34.80
2023-02-22T03:09:09.878Z,35.00
2023-02-22T03:10:09.873Z,34.30
2023-02-22T03:11:09.844Z,35.20
2023-02-22T03:12:09.852Z,35.30
2023-02-22T03:13:09.818Z,36.20
2023-02-22T03:14:09.820Z,35.90
2023-02-22T03:15:09.801Z,36.70
2023-02-22T03:16:09.823Z,37.10
2023-02-22T03:17:09.769Z,35.10
2023-02-22T03:18:09.763Z,34.90
2023-02-22T03:19:09.744Z,37.20
2023-02-22T03:20:09.781Z,36.10
2023-02-22T03:21:09.714Z,36.00
2023-02-22T03:22:09.718Z,33.90
2023-02-22T03:23:09.703Z,34.30
2023-02-22T03:24:09.679Z,34.40
2023-02-22T03:25:09.665Z,32.90
2023-02-22T03:26:09.658Z,34.60
2023-02-22T03:27:09.645Z,36.00
2023-02-22T03:28:09.623Z,35.10
2023-02-22T03:29:09.602Z,34.40
2023-02-22T03:30:09.606Z,33.40
2023-02-22T03:31:09.603Z,32.80
2023-02-22T03:32:09.606Z,31.60
2023-02-22T03:33:09.560Z,32.50
2023-02-22T03:34:09.547Z,30.70
2023-02-22T03:35:09.558Z,33.30
2023-02-22T03:36:09.521Z,32.00
2023-02-22T03:37:09.552Z,31.60
2023-02-22T03:38:09.497Z,30.90
2023-02-22T03:39:09.479Z,30.30
2023-02-22T03:40:09.461Z,29.80
2023-02-22T03:41:09.446Z,30.70
2023-02-22T03:42:09.437Z,30.80
2023-02-22T03:43:09.425Z,29.70
2023-02-22T03:44:09.427Z,30.60
2023-02-22T03:45:09.417Z,31.30
2023-02-22T03:46:09.397Z,31.60
2023-02-22T03:47:09.371Z,30.50
2023-02-22T03:48:09.365Z,30.40
2023-02-22T03:49:09.342Z,30.40
2023-02-22T03:50:09.330Z,30.80
2023-02-22T03:51:09.322Z,31.90
2023-02-22T03:52:09.306Z,29.10
2023-02-22T03:53:09.306Z,30.30
2023-02-22T03:54:09.278Z,31.60
2023-02-22T03:55:09.263Z,31.50
2023-02-22T03:56:09.236Z,30.90
2023-02-22T03:57:09.226Z,30.50
2023-02-22T03:58:09.221Z,33.10
2023-02-22T03:59:09.210Z,29.30
2023-02-22T04:00:09.213Z,30.30
2023-02-22T04:01:09.170Z,31.10
2023-02-22T04:02:09.167Z,31.80
2023-02-22T04:03:09.281Z,29.40
2023-02-22T04:04:09.137Z,30.70
2023-02-22T04:05:09.120Z,30.60
2023-02-22T04:06:09.103Z,29.30
2023-02-22T04:07:09.090Z,31.50
2023-02-22T04:08:09.093Z,30.80
2023-02-22T04:09:09.081Z,30.20
2023-02-22T04:10:09.052Z,31.00
2023-02-22T04:11:09.042Z,30.70
2023-02-22T04:12:09.020Z,31.10
2023-02-22T04:13:09.018Z,30.00
2023-02-22T04:14:09.002Z,30.10
2023-02-22T04:15:08.981Z,30.40
2023-02-22T04:16:09.008Z,29.10
2023-02-22T04:17:08.962Z,31.00
2023-02-22T04:18:08.971Z,31.40
2023-02-22T04:19:08.940Z,31.00
2023-02-22T04:20:08.935Z,30.80
2023-02-22T04:21:08.901Z,32.10
2023-02-22T04:22:08.891Z,31.20
2023-02-22T04:23:08.882Z,32.50
2023-02-22T04:24:08.877Z,31.00
2023-02-22T04:25:08.850Z,30.10
2023-02-22T04:26:08.856Z,28.80
2023-02-22T04:27:08.820Z,29.10
2023-02-22T04:28:08.816Z,28.50
2023-02-22T04:29:08.790Z,28.90
2023-02-22T04:30:08.830Z,29.70
2023-02-22T04:31:08.814Z,28.90
2023-02-22T04:32:08.799Z,28.60
2023-02-22T04:33:08.749Z,27.10
2023-02-22T04:34:08.730Z,25.60
2023-02-22T04:35:08.719Z,26.10
2023-02-22T04:36:08.699Z,25.90
2023-02-22T04:37:08.686Z,27.00
2023-02-22T04:38:08.705Z,25.80
2023-02-22T04:39:08.660Z,26.00
2023-02-22T04:40:08.659Z,27.20
2023-02-22T04:41:08.629Z,25.80
2023-02-22T04:42:08.625Z,25.60
2023-02-22T04:43:08.611Z,23.50
2023-02-22T04:44:08.597Z,24.60
2023-02-22T04:45:08.607Z,25.50
2023-02-22T04:46:08.640Z,25.40
2023-02-22T04:47:08.550Z,24.40
2023-02-22T04:48:08.586Z,24.50
2023-02-22T04:49:08.521Z,24.20
2023-02-22T04:50:08.527Z,24.50
2023-02-22T04:51:08.506Z,24.60
2023-02-22T04:52:08.488Z,22.30
2023-02-22T04:53:08.504Z,24.10
2023-02-22T04:54:08.453Z,23.50
2023-02-22T04:55:08.449Z,23.10
2023-02-22T04:56:08.462Z,25.00
2023-02-22T04:57:08.413Z,24.60
2023-02-22T04:58:09.545Z,24.00
2023-02-22T04:59:08.405Z,24.20
2023-02-22T05:00:08.373Z,24.80
2023-02-22T05:01:08.357Z,23.40
2023-02-22T05:02:08.360Z,22.40
2023-02-22T05:03:08.343Z,22.50
2023-02-22T05:04:08.343Z,22.80
2023-02-22T05:05:08.398Z,22.50
2023-02-22T05:06:08.315Z,20.20
2023-02-22T05:07:08.276Z,23.30
2023-02-22T05:08:08.311Z,22.50
2023-02-22T05:09:08.268Z,22.80
2023-02-22T05:10:08.241Z,23.70
2023-02-22T05:11:08.232Z,22.30
2023-02-22T05:12:08.224Z,22.50
2023-02-22T05:13:08.195Z,22.60
2023-02-22T05:14:08.243Z,22.40
2023-02-22T05:15:08.162Z,22.20
2023-02-22T05:16:08.164Z,24.20
2023-02-22T05:17:08.139Z,23.00
2023-02-22T05:18:08.136Z,22.30
2023-02-22T05:19:08.507Z,21.60
2023-02-22T05:20:08.117Z,21.20
2023-02-22T05:21:08.087Z,21.80
2023-02-22T05:22:08.076Z,22.40
2023-02-22T05:23:08.062Z,20.50
2023-02-22T05:24:08.067Z,22.50
2023-02-22T05:25:08.032Z,21.70
2023-02-22T05:26:09.971Z,22.80
2023-02-22T05:27:08.019Z,21.70
2023-02-22T05:28:08.004Z,21.90
2023-02-22T05:29:08.323Z,21.00
2023-02-22T05:30:08.064Z,26.40
2023-02-22T05:31:08.001Z,22.50
2023-02-22T05:32:07.997Z,25.00
2023-02-22T05:33:07.948Z,21.50
2023-02-22T05:34:07.956Z,21.00
2023-02-22T05:35:07.919Z,21.60
2023-02-22T05:36:07.897Z,22.90
2023-02-22T05:37:07.914Z,20.40
2023-02-22T05:38:07.863Z,21.50
2023-02-22T05:39:07.854Z,20.80
2023-02-22T05:40:07.849Z,21.20
2023-02-22T05:41:07.821Z,21.60
2023-02-22T05:42:07.824Z,21.50
2023-02-22T05:43:07.819Z,21.70
2023-02-22T05:44:07.940Z,25.70
2023-02-22T05:45:07.777Z,21.40
2023-02-22T05:46:07.760Z,21.10
2023-02-22T05:47:07.745Z,20.70
2023-02-22T05:48:07.739Z,21.80
2023-02-22T05:49:07.726Z,22.00
2023-02-22T05:50:07.721Z,19.20
2023-02-22T05:51:07.674Z,19.20
2023-02-22T05:52:07.672Z,20.20
2023-02-22T05:53:07.662Z,21.10
2023-02-22T05:54:07.658Z,20.40
2023-02-22T05:55:07.635Z,20.90
2023-02-22T05:56:07.615Z,19.80
2023-02-22T05:57:07.600Z,20.30
2023-02-22T05:58:07.583Z,21.20
2023-02-22T05:59:07.579Z,18.70
2023-02-22T06:00:07.572Z,21.30
2023-02-22T06:01:07.555Z,20.60
2023-02-22T06:02:07.585Z,19.20
2023-02-22T06:03:07.514Z,20.20
2023-02-22T06:04:07.519Z,19.00
2023-02-22T06:05:07.506Z,18.90
2023-02-22T06:06:07.504Z,20.50
2023-02-22T06:07:07.466Z,20.20
2023-02-22T06:08:07.452Z,20.50
2023-02-22T06:09:07.446Z,18.40
2023-02-22T06:10:07.438Z,20.80
2023-02-22T06:11:07.415Z,19.30
2023-02-22T06:12:07.395Z,19.60
2023-02-22T06:13:07.371Z,19.50
2023-02-22T06:14:07.385Z,18.90
2023-02-22T06:15:07.372Z,19.60
2023-02-22T06:16:07.360Z,18.70
2023-02-22T06:17:07.368Z,21.40
2023-02-22T06:18:07.312Z,22.40
2023-02-22T06:19:07.295Z,20.90
2023-02-22T06:20:07.313Z,19.20
2023-02-22T06:21:07.275Z,19.40
2023-02-22T06:22:07.292Z,18.10
2023-02-22T06:23:07.250Z,20.00
2023-02-22T06:24:07.242Z,18.60
2023-02-22T06:25:07.229Z,18.80
2023-02-22T06:26:07.208Z,18.00
2023-02-22T06:27:07.189Z,18.40
2023-02-22T06:28:07.192Z,18.40
2023-02-22T06:29:07.176Z,18.30
2023-02-22T06:30:07.214Z,19.10
2023-02-22T06:31:07.215Z,22.80
2023-02-22T06:32:07.205Z,20.00
2023-02-22T06:33:07.106Z,20.30
2023-02-22T06:34:07.095Z,20.00
2023-02-22T06:35:07.188Z,22.90
2023-02-22T06:36:07.085Z,20.60
2023-02-22T06:37:07.055Z,19.30
2023-02-22T06:38:07.040Z,20.10
2023-02-22T06:39:07.033Z,19.70
2023-02-22T06:40:07.034Z,19.90
2023-02-22T06:41:07.004Z,19.70
2023-02-22T06:42:07.030Z,20.40
2023-02-22T06:43:07.020Z,21.40
2023-02-22T06:44:06.968Z,19.00
2023-02-22T06:45:07.088Z,20.10
2023-02-22T06:46:07.008Z,19.50
2023-02-22T06:47:06.927Z,21.30
2023-02-22T06:48:06.911Z,19.50
2023-02-22T06:49:06.908Z,20.30
2023-02-22T06:50:06.921Z,19.80
2023-02-22T06:51:06.880Z,19.80
2023-02-22T06:52:06.848Z,18.80
2023-02-22T06:53:06.843Z,18.80
2023-02-22T06:54:06.884Z,19.00
2023-02-22T06:55:06.810Z,19.10
2023-02-22T06:56:06.810Z,20.10
2023-02-22T06:57:06.789Z,19.10
2023-02-22T06:58:06.793Z,18.90
2023-02-22T06:59:06.784Z,19.70
2023-02-22T07:00:06.767Z,18.70
2023-02-22T07:01:06.802Z,19.40
2023-02-22T07:02:06.718Z,17.80
2023-02-22T07:03:06.729Z,17.90
2023-02-22T07:04:06.706Z,18.80
2023-02-22T07:05:06.705Z,18.20
2023-02-22T07:06:06.664Z,17.10
2023-02-22T07:07:06.662Z,17.40
2023-02-22T07:08:06.642Z,16.80
2023-02-22T07:09:06.640Z,16.50
2023-02-22T07:10:06.642Z,17.90
2023-02-22T07:11:06.643Z,18.40
2023-02-22T07:12:06.584Z,18.10
2023-02-22T07:13:06.580Z,16.90
2023-02-22T07:14:06.587Z,17.60
2023-02-22T07:15:06.578Z,16.70
2023-02-22T07:16:06.581Z,17.40
2023-02-22T07:17:06.571Z,17.10
2023-02-22T07:18:06.568Z,17.00
2023-02-22T07:19:06.515Z,16.90
2023-02-22T07:20:06.504Z,17.20
2023-02-22T07:21:06.471Z,17.00
2023-02-22T07:22:06.447Z,17.00
2023-02-22T07:23:06.444Z,16.30
2023-02-22T07:24:06.423Z,16.60
2023-02-22T07:25:06.431Z,18.00
2023-02-22T07:26:06.393Z,17.70
2023-02-22T07:27:06.405Z,17.10
2023-02-22T07:28:06.372Z,16.80
2023-02-22T07:29:06.356Z,16.80
2023-02-22T07:30:06.368Z,16.60
2023-02-22T07:31:06.415Z,15.80
2023-02-22T07:32:06.353Z,15.70
2023-02-22T07:33:06.342Z,16.30
2023-02-22T07:34:06.281Z,16.90
2023-02-22T07:35:06.275Z,17.50
2023-02-22T07:36:06.263Z,17.20
2023-02-22T07:37:06.300Z,16.00
2023-02-22T07:38:06.255Z,16.10
2023-02-22T07:39:06.231Z,17.50
2023-02-22T07:40:06.234Z,17.30
2023-02-22T07:41:06.202Z,16.50
2023-02-22T07:42:06.241Z,17.10
2023-02-22T07:43:07.198Z,17.10
2023-02-22T07:44:06.152Z,16.90
2023-02-22T07:45:06.151Z,17.10
2023-02-22T07:46:06.199Z,16.70
2023-02-22T07:47:06.120Z,16.50
2023-02-22T07:48:06.137Z,16.20
2023-02-22T07:49:06.132Z,16.60
2023-02-22T07:50:06.059Z,16.20
2023-02-22T07:51:06.129Z,16.50
2023-02-22T07:52:06.052Z,17.00
2023-02-22T07:53:06.049Z,16.20
2023-02-22T07:54:06.011Z,16.70
2023-02-22T07:55:05.996Z,16.50
2023-02-22T07:56:06.025Z,16.10
2023-02-22T07:57:06.000Z,15.90
2023-02-22T07:58:05.961Z,16.60
2023-02-22T07:59:05.953Z,14.90
2023-02-22T08:00:05.935Z,15.70
2023-02-22T08:01:05.990Z,15.00
2023-02-22T08:02:05.906Z,15.10
2023-02-22T08:03:05.898Z,15.80
2023-02-22T08:04:05.911Z,15.40
2023-02-22T08:05:05.908Z,14.70
2023-02-22T08:06:05.912Z,15.00
2023-02-22T08:07:05.850Z,14.80
2023-02-22T08:08:05.827Z,15.00
2023-02-22T08:09:05.831Z,15.20
2023-02-22T08:10:05.841Z,14.80
2023-02-22T08:11:05.813Z,15.50
2023-02-22T08:12:05.795Z,14.80
2023-02-22T08:13:05.814Z,14.80
2023-02-22T08:14:05.745Z,14.90
2023-02-22T08:15:05.747Z,15.50
2023-02-22T08:16:05.779Z,14.50
2023-02-22T08:17:07.794Z,15.10
2023-02-22T08:18:05.706Z,15.30
2023-02-22T08:19:05.700Z,15.30
2023-02-22T08:20:05.668Z,15.30
2023-02-22T08:21:05.708Z,15.30
2023-02-22T08:22:05.671Z,15.00
2023-02-22T08:23:05.671Z,14.90
2023-02-22T08:24:05.659Z,15.10
2023-02-22T08:25:05.614Z,15.00
2023-02-22T08:26:05.612Z,15.10
2023-02-22T08:27:05.578Z,14.70
2023-02-22T08:28:05.589Z,14.30
2023-02-22T08:29:05.566Z,14.90
2023-02-22T08:30:05.575Z,15.40
2023-02-22T08:31:05.758Z,15.30
2023-02-22T08:32:05.710Z,15.50
2023-02-22T08:33:05.666Z,15.30
2023-02-22T08:34:05.505Z,15.10
2023-02-22T08:35:05.517Z,14.90
2023-02-22T08:36:05.475Z,14.60
2023-02-22T08:37:05.429Z,13.40
2023-02-22T08:38:05.437Z,14.50
2023-02-22T08:39:05.434Z,15.60
2023-02-22T08:40:05.396Z,15.20
2023-02-22T08:41:05.448Z,14.30
2023-02-22T08:42:05.405Z,15.40
2023-02-22T08:43:05.359Z,13.80
2023-02-22T08:44:05.360Z,13.80
2023-02-22T08:45:05.340Z,14.70
2023-02-22T08:46:05.397Z,13.70
2023-02-22T08:47:05.325Z,13.70
2023-02-22T08:48:05.327Z,13.70
2023-02-22T08:49:05.303Z,13.80
2023-02-22T08:50:05.288Z,13.70
2023-02-22T08:51:05.295Z,13.20
2023-02-22T08:52:05.243Z,13.30
2023-02-22T08:53:05.214Z,12.40
2023-02-22T08:54:26.316Z,13.60
2023-02-22T08:55:05.259Z,13.40
2023-02-22T08:56:05.180Z,13.90
2023-02-22T08:57:05.402Z,13.50
2023-02-22T08:58:05.214Z,13.30
2023-02-22T08:59:05.132Z,13.80
2023-02-22T09:00:05.157Z,12.90
2023-02-22T09:01:05.136Z,12.70
2023-02-22T09:02:05.126Z,12.70
2023-02-22T09:03:05.112Z,12.70
2023-02-22T09:04:05.234Z,12.50
2023-02-22T09:05:05.058Z,12.10
2023-02-22T09:06:05.118Z,12.90
2023-02-22T09:07:05.060Z,12.20
2023-02-22T09:08:05.063Z,12.20
2023-02-22T09:09:05.037Z,13.40
2023-02-22T09:10:04.984Z,12.90
2023-02-22T09:11:04.993Z,12.80
2023-02-22T09:12:04.987Z,13.90
2023-02-22T09:13:04.962Z,12.90
2023-02-22T09:14:04.935Z,13.20
2023-02-22T09:15:04.932Z,13.60
2023-02-22T09:16:04.945Z,14.00
2023-02-22T09:17:05.950Z,13.50
2023-02-22T09:18:04.898Z,14.90
2023-02-22T09:19:04.891Z,13.80
2023-02-22T09:20:04.854Z,14.10
2023-02-22T09:21:04.843Z,14.40
2023-02-22T09:22:04.868Z,13.70
2023-02-22T09:23:04.827Z,14.00
2023-02-22T09:24:04.870Z,14.30
2023-02-22T09:25:15.988Z,14.50
2023-02-22T09:26:04.809Z,13.40
2023-02-22T09:27:04.824Z,14.20
2023-02-22T09:28:04.734Z,12.80
2023-02-22T09:29:04.723Z,13.10
2023-02-22T09:30:04.711Z,13.70
2023-02-22T09:31:04.722Z,12.90
2023-02-22T09:32:04.881Z,12.90
2023-02-22T09:33:04.759Z,12.80
2023-02-22T09:34:04.656Z,12.70
2023-02-22T09:35:04.665Z,13.70
2023-02-22T09:36:04.630Z,13.10
2023-02-22T09:37:04.681Z,14.00
2023-02-22T09:38:04.615Z,12.70
2023-02-22T09:39:04.593Z,13.20
2023-02-22T09:40:04.615Z,13.90
2023-02-22T09:41:04.716Z,13.80
2023-02-22T09:42:04.553Z,13.20
2023-02-22T09:43:04.549Z,13.70
2023-02-22T09:44:04.576Z,13.90
2023-02-22T09:45:04.512Z,13.20
2023-02-22T09:46:04.573Z,12.90
2023-02-22T09:47:04.496Z,12.80
2023-02-22T09:48:20.905Z,12.60
2023-02-22T09:49:05.015Z,12.90
2023-02-22T09:50:04.460Z,12.40
2023-02-22T09:51:04.509Z,12.30
2023-02-22T09:52:04.469Z,11.80
2023-02-22T09:53:04.393Z,12.50
2023-02-22T09:54:04.392Z,13.70
2023-02-22T09:55:04.404Z,13.10
2023-02-22T09:56:04.351Z,12.40
2023-02-22T09:57:04.372Z,13.10
2023-02-22T09:58:04.343Z,12.80
2023-02-22T09:59:04.322Z,12.20
2023-02-22T10:00:04.282Z,12.70
2023-02-22T10:01:04.289Z,11.60
2023-02-22T10:02:04.286Z,12.40
2023-02-22T10:03:04.304Z,11.40
2023-02-22T10:04:04.380Z,11.30
2023-02-22T10:05:04.273Z,11.10
2023-02-22T10:06:04.245Z,11.70
2023-02-22T10:07:04.206Z,11.50
2023-02-22T10:08:04.739Z,11.00
2023-02-22T10:09:04.204Z,11.60
2023-02-22T10:10:04.176Z,11.10
2023-02-22T10:11:04.152Z,10.80
2023-02-22T10:12:04.152Z,11.70
2023-02-22T10:13:04.145Z,12.30
2023-02-22T10:14:04.123Z,12.10
2023-02-22T10:15:04.114Z,11.90
2023-02-22T10:16:04.098Z,11.70
2023-02-22T10:17:04.069Z,11.60
2023-02-22T10:18:04.127Z,11.40
2023-02-22T10:19:04.360Z,11.50
2023-02-22T10:20:04.044Z,11.90
2023-02-22T10:21:04.023Z,11.70
2023-02-22T10:22:04.008Z,12.20
2023-02-22T10:23:04.305Z,11.00
2023-02-22T10:24:04.019Z,11.40
2023-02-22T10:25:04.074Z,11.80
2023-02-22T10:26:03.956Z,11.70
2023-02-22T10:27:03.977Z,12.60
2023-02-22T10:28:03.965Z,11.90
2023-02-22T10:29:03.928Z,11.10
2023-02-22T10:30:12.716Z,11.50
2023-02-22T10:31:04.085Z,11.30
2023-02-22T10:32:03.994Z,11.40
2023-02-22T10:33:03.880Z,11.30
2023-02-22T10:34:03.865Z,11.80
2023-02-22T10:35:03.871Z,11.50
2023-02-22T10:36:03.818Z,11.40
2023-02-22T10:37:03.821Z,11.30
2023-02-22T10:38:03.806Z,11.70
2023-02-22T10:39:03.791Z,12.10
2023-02-22T10:40:03.781Z,12.00
2023-02-22T10:41:03.793Z,12.40
2023-02-22T10:42:03.771Z,11.30
2023-02-22T10:43:03.748Z,11.90
2023-02-22T10:44:03.750Z,11.90
2023-02-22T10:45:03.707Z,11.50
2023-02-22T10:46:03.729Z,12.30
2023-02-22T10:47:03.695Z,12.60
2023-02-22T10:48:03.684Z,12.10
2023-02-22T10:49:03.680Z,11.90
2023-02-22T10:50:03.645Z,11.90
2023-02-22T10:51:03.721Z,12.20
2023-02-22T10:52:03.623Z,11.50
2023-02-22T10:53:03.667Z,11.90
2023-02-22T10:54:03.588Z,12.30
2023-02-22T10:55:14.671Z,13.20
2023-02-22T10:56:03.605Z,13.10
2023-02-22T10:57:03.622Z,12.60
2023-02-22T10:58:03.528Z,12.70
2023-02-22T10:59:03.573Z,12.60
2023-02-22T11:00:03.499Z,13.40
2023-02-22T11:01:03.503Z,12.80
2023-02-22T11:02:03.575Z,13.20
2023-02-22T11:03:03.478Z,13.30
2023-02-22T11:04:03.463Z,13.50
2023-02-22T11:05:03.487Z,13.30
2023-02-22T11:06:05.204Z,13.10
2023-02-22T11:07:03.454Z,12.30
2023-02-22T11:08:03.492Z,12.10
2023-02-22T11:09:03.398Z,12.40
2023-02-22T11:10:03.426Z,12.90
2023-02-22T11:11:03.391Z,12.90
2023-02-22T11:12:03.367Z,13.40
2023-02-22T11:13:03.332Z,13.00
2023-02-22T11:14:03.416Z,13.30
2023-02-22T11:15:03.356Z,13.10
2023-02-22T11:16:03.457Z,12.50
2023-02-22T11:17:03.379Z,13.40
2023-02-22T11:18:03.374Z,13.40
2023-02-22T11:19:03.483Z,13.10
2023-02-22T11:20:03.273Z,12.10
2023-02-22T11:21:03.260Z,13.00
2023-02-22T11:22:03.192Z,12.70
2023-02-22T11:23:03.182Z,13.80
2023-02-22T11:24:03.174Z,13.20
2023-02-22T11:25:03.193Z,13.20
2023-02-22T11:26:03.140Z,13.40
2023-02-22T11:27:03.149Z,13.30
2023-02-22T11:28:03.114Z,15.50
2023-02-22T11:29:03.109Z,14.50
2023-02-22T11:30:05.797Z,14.70
2023-02-22T11:31:03.163Z,14.00
2023-02-22T11:32:03.195Z,14.50
2023-02-22T13:36:43.426Z,9.80
2023-02-22T13:37:44.369Z,9.50
2023-02-22T13:38:44.358Z,10.60
2023-02-22T13:39:44.342Z,10.70
2023-02-22T13:40:44.343Z,10.20
2023-02-22T13:41:44.327Z,9.90
2023-02-22T13:42:44.305Z,10.10
2023-02-22T13:43:44.302Z,10.40
2023-02-22T13:44:44.251Z,10.50
2023-02-22T13:45:44.264Z,10.20
2023-02-22T13:46:44.299Z,10.50
2023-02-22T13:47:44.237Z,10.50
2023-02-22T13:48:44.257Z,10.00
2023-02-22T13:49:44.249Z,9.90
2023-02-22T13:50:44.189Z,9.90
2023-02-22T13:51:46.504Z,10.00
2023-02-22T13:52:45.654Z,9.70
2023-02-22T13:53:44.212Z,10.00
2023-02-22T13:54:44.152Z,10.50
2023-02-22T13:55:44.140Z,10.50
2023-02-22T13:56:44.117Z,9.20
2023-02-22T13:57:44.106Z,10.20
2023-02-22T13:58:44.150Z,9.60
2023-02-22T13:59:44.079Z,9.40
2023-02-22T14:00:44.061Z,9.60
2023-02-22T14:01:44.102Z,9.20
2023-02-22T14:02:44.055Z,9.10
2023-02-22T14:03:44.022Z,8.80
2023-02-22T14:04:44.121Z,8.40
2023-02-22T14:05:44.048Z,8.80
2023-02-22T14:06:44.011Z,8.80
2023-02-22T14:07:43.977Z,9.40
2023-02-22T14:08:44.041Z,8.80
2023-02-22T14:09:43.929Z,8.30
2023-02-22T14:10:43.961Z,8.10
2023-02-22T14:11:43.944Z,8.60
2023-02-22T14:12:43.942Z,8.60
2023-02-22T14:13:43.874Z,8.80
2023-02-22T14:14:43.870Z,7.90
2023-02-22T14:15:44.853Z,7.80
2023-02-22T14:16:43.854Z,8.50
2023-02-22T14:17:43.863Z,8.00
2023-02-22T14:18:43.999Z,8.10
2023-02-22T14:19:43.794Z,7.80
2023-02-22T14:20:43.826Z,8.10
2023-02-22T14:21:43.795Z,7.90
2023-02-22T14:22:45.628Z,8.30
2023-02-22T14:23:43.749Z,8.20
2023-02-22T14:24:43.772Z,8.20
2023-02-22T14:25:43.731Z,8.40
2023-02-22T14:26:43.706Z,8.10
2023-02-22T14:27:43.697Z,7.90
2023-02-22T14:28:43.713Z,7.50
2023-02-22T14:29:43.658Z,8.00
2023-02-22T14:30:43.721Z,7.90
2023-02-22T14:31:43.858Z,8.70
2023-02-22T14:32:43.721Z,8.40
2023-02-22T14:33:44.296Z,7.60
2023-02-22T14:34:43.600Z,7.90
2023-02-22T14:35:49.962Z,8.30
2023-02-22T14:36:43.688Z,8.10
2023-02-22T14:37:43.615Z,8.00
2023-02-22T14:38:43.557Z,8.20
2023-02-22T14:39:43.665Z,8.60
2023-02-22T14:40:43.517Z,8.90
2023-02-22T14:41:43.534Z,8.40
2023-02-22T14:42:43.504Z,8.40
2023-02-22T14:43:43.481Z,8.20
2023-02-22T14:44:43.464Z,8.50
2023-02-22T14:45:43.622Z,8.60
2023-02-22T14:46:43.452Z,8.40
2023-02-22T14:47:43.442Z,8.70
2023-02-22T14:48:43.424Z,8.10
2023-02-22T14:49:43.514Z,8.50
2023-02-22T14:50:43.392Z,8.60
2023-02-22T14:51:43.379Z,8.20
2023-02-22T14:52:43.363Z,7.90
2023-02-22T14:53:43.339Z,8.00
2023-02-22T14:54:43.332Z,8.50
2023-02-22T14:55:43.315Z,8.10
2023-02-22T14:56:43.409Z,8.00
2023-02-22T14:57:43.746Z,8.10